createdAt,value
2018-12-18T00:01:44.302Z,90.50
2018-12-18T00:04:15.372Z,90.40
2018-12-18T00:06:46.395Z,90.40
2018-12-18T00:09:15.715Z,90.40
2018-12-18T00:11:44.860Z,90.40
2018-12-18T00:14:13.913Z,90.60
2018-12-18T00:16:43.026Z,90.70
2018-12-18T00:19:12.270Z,90.20
2018-12-18T00:21:41.317Z,90.10
2018-12-18T00:24:10.591Z,90.60
2018-12-18T00:26:39.636Z,90.60
2018-12-18T00:29:08.778Z,90.20
2018-12-18T00:31:37.907Z,90.10
2018-12-18T00:34:07.162Z,90.10
2018-12-18T00:36:36.788Z,90.30
2018-12-18T00:39:09.725Z,90.20
2018-12-18T00:41:38.750Z,90.40
2018-12-18T00:44:08.042Z,90.70
2018-12-18T00:46:37.296Z,90.40
2018-12-18T00:49:06.346Z,90.60
2018-12-18T00:51:35.348Z,90.50
2018-12-18T00:54:04.398Z,91.00
2018-12-18T00:56:34.630Z,91.20
2018-12-18T00:59:04.020Z,90.90
2018-12-18T01:01:33.026Z,90.90
2018-12-18T01:04:02.129Z,90.90
2018-12-18T01:06:32.034Z,90.30
2018-12-18T01:09:01.128Z,90.30
2018-12-18T01:11:32.168Z,90.50
2018-12-18T01:14:01.367Z,90.40
2018-12-18T01:16:30.618Z,90.30
2018-12-18T01:18:59.792Z,90.00
2018-12-18T01:21:29.095Z,90.20
2018-12-18T01:23:58.092Z,90.00
2018-12-18T01:26:27.136Z,90.00
2018-12-18T01:28:56.169Z,89.40
2018-12-18T01:31:25.231Z,88.90
2018-12-18T01:33:59.285Z,88.70
2018-12-18T01:36:25.390Z,89.00
2018-12-18T01:38:54.521Z,89.30
2018-12-18T01:41:23.580Z,89.10
2018-12-18T01:43:52.738Z,88.60
2018-12-18T01:46:21.876Z,88.00
2018-12-18T01:48:51.097Z,88.40
2018-12-18T01:51:20.364Z,88.20
2018-12-18T01:53:49.416Z,88.90
2018-12-18T01:56:18.481Z,89.60
2018-12-18T01:58:47.614Z,89.30
2018-12-18T02:01:16.638Z,88.90
2018-12-18T02:03:45.724Z,88.90
2018-12-18T02:06:16.027Z,90.20
2018-12-18T02:08:46.131Z,90.10
2018-12-18T02:11:15.136Z,89.90
2018-12-18T02:13:44.199Z,89.00
2018-12-18T02:16:13.340Z,90.00
2018-12-18T02:18:42.340Z,89.20
2018-12-18T02:21:11.564Z,89.30
2018-12-18T02:23:40.698Z,89.60
2018-12-18T02:26:09.698Z,90.20
2018-12-18T02:28:38.736Z,89.20
2018-12-18T02:31:07.872Z,89.70
2018-12-18T02:33:36.928Z,90.00
2018-12-18T02:36:06.371Z,89.30
2018-12-18T02:38:35.541Z,87.90
2018-12-18T02:41:04.722Z,89.30
2018-12-18T02:43:40.491Z,89.80
2018-12-18T02:46:09.534Z,89.60
2018-12-18T02:48:38.534Z,88.80
2018-12-18T02:51:07.560Z,88.50
2018-12-18T02:53:36.578Z,88.80
2018-12-18T02:56:05.710Z,89.00
2018-12-18T02:58:34.746Z,88.50
2018-12-18T03:01:03.918Z,90.00
2018-12-18T03:03:33.089Z,90.10
2018-12-18T03:06:02.128Z,90.10
2018-12-18T03:08:31.495Z,89.30
2018-12-18T03:11:00.505Z,88.50
2018-12-18T03:13:29.734Z,88.40
2018-12-18T03:15:58.758Z,88.50
2018-12-18T03:18:27.770Z,88.10
2018-12-18T03:20:56.787Z,88.40
2018-12-18T03:23:25.791Z,89.30
2018-12-18T03:25:54.837Z,89.10
2018-12-18T03:28:23.820Z,88.60
2018-12-18T03:30:52.996Z,88.80
2018-12-18T03:33:21.992Z,88.50
2018-12-18T03:35:51.048Z,88.70
2018-12-18T03:38:20.252Z,88.50
2018-12-18T03:40:49.265Z,88.70
2018-12-18T03:43:18.278Z,88.00
2018-12-18T03:45:47.554Z,87.90
2018-12-18T03:48:16.585Z,88.60
2018-12-18T03:50:46.001Z,88.40
2018-12-18T03:53:15.116Z,87.80
2018-12-18T03:55:44.179Z,87.90
2018-12-18T03:58:13.626Z,87.60
2018-12-18T04:00:42.846Z,88.30
2018-12-18T04:03:12.341Z,88.50
2018-12-18T04:05:41.402Z,89.00
2018-12-18T04:08:10.465Z,88.90
2018-12-18T04:10:39.649Z,88.80
2018-12-18T04:13:08.997Z,89.10
2018-12-18T04:15:38.167Z,89.20
2018-12-18T04:18:07.208Z,88.90
2018-12-18T04:20:36.222Z,89.50
2018-12-18T04:23:05.867Z,89.70
2018-12-18T04:25:35.074Z,89.20
2018-12-18T04:28:04.176Z,89.30
2018-12-18T04:30:33.261Z,89.30
2018-12-18T04:33:02.273Z,90.10
2018-12-18T04:35:33.318Z,90.00
2018-12-18T04:38:02.387Z,90.00
2018-12-18T04:40:31.452Z,90.30
2018-12-18T04:43:01.599Z,90.00
2018-12-18T04:45:30.610Z,90.00
2018-12-18T04:47:59.612Z,90.10
2018-12-18T04:50:28.670Z,90.40
2018-12-18T04:52:57.673Z,90.20
2018-12-18T04:55:26.864Z,90.20
2018-12-18T04:57:56.012Z,90.00
2018-12-18T05:00:25.305Z,90.10
2018-12-18T05:02:54.420Z,90.00
2018-12-18T05:05:23.502Z,90.00
2018-12-18T05:07:52.606Z,90.20
2018-12-18T05:10:21.682Z,90.40
2018-12-18T05:12:50.975Z,90.60
2018-12-18T05:15:20.242Z,90.30
2018-12-18T05:17:49.569Z,90.50
2018-12-18T05:20:18.616Z,90.80
2018-12-18T05:22:47.630Z,91.20
2018-12-18T05:25:16.698Z,90.80
2018-12-18T05:27:45.972Z,90.50
2018-12-18T05:30:15.034Z,90.20
2018-12-18T05:32:44.086Z,90.00
2018-12-18T05:35:13.214Z,89.50
2018-12-18T05:37:48.706Z,89.00
2018-12-18T05:40:17.779Z,88.50
2018-12-18T05:42:46.814Z,89.10
2018-12-18T05:45:15.850Z,90.00
2018-12-18T05:47:44.881Z,89.40
2018-12-18T05:50:13.914Z,89.70
2018-12-18T05:52:42.948Z,89.40
2018-12-18T05:55:11.994Z,88.70
2018-12-18T05:57:41.081Z,87.90
2018-12-18T06:00:12.236Z,88.00
2018-12-18T06:02:41.264Z,88.30
2018-12-18T06:05:10.323Z,89.40
2018-12-18T06:07:39.364Z,90.00
2018-12-18T06:10:08.471Z,89.80
2018-12-18T06:12:37.513Z,89.50
2018-12-18T06:15:06.560Z,89.30
2018-12-18T06:17:35.554Z,90.00
2018-12-18T06:20:05.142Z,89.90
2018-12-18T06:22:34.484Z,90.30
2018-12-18T06:25:03.741Z,90.30
2018-12-18T06:27:32.765Z,90.30
2018-12-18T06:30:02.091Z,90.10
2018-12-18T06:32:31.156Z,90.20
2018-12-18T06:35:00.990Z,89.30
2018-12-18T06:37:30.550Z,88.60
2018-12-18T06:39:59.562Z,88.20
2018-12-18T06:42:28.606Z,88.10
2018-12-18T06:44:57.678Z,88.60
2018-12-18T06:47:26.710Z,88.90
2018-12-18T06:49:55.740Z,89.20
2018-12-18T06:52:25.149Z,89.30
2018-12-18T06:54:54.206Z,88.00
2018-12-18T06:57:23.334Z,88.90
2018-12-18T06:59:52.393Z,88.40
2018-12-18T07:02:21.432Z,89.80
2018-12-18T07:04:50.478Z,90.70
2018-12-18T07:07:19.568Z,90.70
2018-12-18T07:09:48.687Z,90.50
2018-12-18T07:12:17.962Z,90.40
2018-12-18T07:14:47.294Z,90.10
2018-12-18T07:17:16.302Z,88.40
2018-12-18T07:19:48.349Z,88.10
2018-12-18T07:22:18.639Z,87.50
2018-12-18T07:24:47.701Z,87.10
2018-12-18T07:27:16.773Z,88.20
2018-12-18T07:29:45.810Z,88.00
2018-12-18T07:32:15.128Z,88.40
2018-12-18T07:34:44.130Z,88.50
2018-12-18T07:37:13.164Z,89.20
2018-12-18T07:39:42.676Z,88.30
2018-12-18T07:42:11.694Z,89.30
2018-12-18T07:44:40.759Z,87.60
2018-12-18T07:47:09.866Z,87.40
2018-12-18T07:49:38.898Z,87.00
2018-12-18T07:52:07.968Z,87.60
2018-12-18T07:54:36.986Z,88.40
2018-12-18T07:57:06.038Z,89.20
2018-12-18T07:59:35.034Z,89.70
2018-12-18T08:02:04.290Z,90.20
2018-12-18T08:04:33.516Z,90.10
2018-12-18T08:07:02.507Z,90.30
2018-12-18T08:09:31.758Z,88.70
2018-12-18T08:12:01.138Z,88.20
2018-12-18T08:14:30.194Z,87.80
2018-12-18T08:16:59.496Z,87.10
2018-12-18T08:19:28.550Z,86.50
2018-12-18T08:21:57.783Z,85.80
2018-12-18T08:24:27.107Z,84.60
2018-12-18T08:26:56.149Z,84.30
2018-12-18T08:29:25.141Z,82.80
2018-12-18T08:31:54.374Z,83.70
2018-12-18T08:34:23.383Z,82.90
2018-12-18T08:36:52.701Z,83.00
2018-12-18T08:39:21.841Z,82.30
2018-12-18T08:41:50.967Z,82.10
2018-12-18T08:44:20.281Z,81.40
2018-12-18T08:46:49.533Z,81.70
2018-12-18T08:49:18.580Z,83.30
2018-12-18T08:51:47.854Z,83.70
2018-12-18T08:54:16.887Z,84.00
2018-12-18T08:56:47.141Z,83.90
2018-12-18T08:59:16.430Z,83.30
2018-12-18T09:01:45.490Z,85.00
2018-12-18T09:04:14.513Z,84.70
2018-12-18T09:06:44.273Z,84.50
2018-12-18T09:09:13.362Z,84.60
2018-12-18T09:11:42.584Z,84.20
2018-12-18T09:14:11.845Z,83.60
2018-12-18T09:16:46.457Z,83.70
2018-12-18T09:19:15.533Z,83.70
2018-12-18T09:21:44.575Z,83.10
2018-12-18T09:24:13.638Z,84.20
2018-12-18T09:26:42.670Z,83.80
2018-12-18T09:29:11.702Z,83.50
2018-12-18T09:31:40.711Z,83.60
2018-12-18T09:34:09.768Z,83.20
2018-12-18T09:36:39.008Z,81.90
2018-12-18T09:39:13.897Z,80.90
2018-12-18T09:41:47.011Z,79.60
2018-12-18T09:44:18.010Z,79.30
2018-12-18T09:46:46.998Z,81.20
2018-12-18T09:49:17.208Z,80.30
2018-12-18T09:51:46.281Z,79.60
2018-12-18T09:54:15.345Z,80.20
2018-12-18T09:56:50.854Z,80.30
2018-12-18T09:59:20.910Z,80.20
2018-12-18T10:01:50.132Z,79.10
2018-12-18T10:04:19.155Z,79.90
2018-12-18T10:06:48.225Z,78.60
2018-12-18T10:09:17.244Z,79.60
2018-12-18T10:11:46.647Z,78.60
2018-12-18T10:14:15.694Z,77.00
2018-12-18T10:16:45.206Z,76.80
2018-12-18T10:19:14.314Z,77.70
2018-12-18T10:21:43.390Z,78.50
2018-12-18T10:24:12.405Z,79.00
2018-12-18T10:26:41.499Z,79.30
2018-12-18T10:29:10.589Z,78.40
2018-12-18T10:31:39.687Z,78.20
2018-12-18T10:34:09.141Z,78.00
2018-12-18T10:36:38.236Z,79.10
2018-12-18T10:39:07.761Z,76.90
2018-12-18T10:41:38.053Z,78.10
2018-12-18T10:44:07.189Z,79.10
2018-12-18T10:46:36.555Z,79.20
2018-12-18T10:49:05.874Z,78.60
2018-12-18T10:51:34.969Z,78.60
2018-12-18T10:54:04.305Z,78.30
2018-12-18T10:56:33.410Z,79.00
2018-12-18T10:59:02.942Z,80.40
2018-12-18T11:01:37.322Z,80.00
2018-12-18T11:04:06.351Z,78.40
2018-12-18T11:06:35.429Z,77.90
2018-12-18T11:09:08.849Z,77.90
2018-12-18T11:11:38.221Z,78.70
2018-12-18T11:14:07.863Z,79.10
2018-12-18T11:16:37.899Z,79.90
2018-12-18T11:19:06.992Z,78.10
2018-12-18T11:24:11.700Z,79.40
2018-12-18T11:26:40.754Z,78.60
2018-12-18T11:29:10.046Z,78.00
2018-12-18T11:31:39.079Z,78.00
2018-12-18T11:34:08.153Z,78.60
2018-12-18T11:36:37.183Z,79.20
2018-12-18T11:39:07.313Z,79.60
2018-12-18T11:41:38.147Z,79.50
2018-12-18T11:44:07.369Z,80.50
2018-12-18T11:46:36.433Z,80.80
2018-12-18T11:49:05.466Z,79.80
2018-12-18T11:51:34.649Z,78.40
2018-12-18T11:54:03.927Z,77.90
2018-12-18T11:56:33.045Z,79.10
2018-12-18T11:59:02.085Z,79.70
2018-12-18T12:01:31.168Z,78.20
2018-12-18T12:04:00.472Z,77.50
2018-12-18T12:06:31.549Z,78.70
2018-12-18T12:09:00.617Z,78.30
2018-12-18T12:11:31.606Z,77.70
2018-12-18T12:14:00.666Z,78.00
2018-12-18T12:16:29.669Z,79.60
2018-12-18T12:18:58.700Z,79.80
2018-12-18T12:21:27.712Z,78.00
2018-12-18T12:23:56.736Z,76.80
2018-12-18T12:26:31.158Z,76.80
2018-12-18T12:29:00.184Z,76.90
2018-12-18T12:31:29.380Z,78.10
2018-12-18T12:33:58.395Z,78.00
2018-12-18T12:36:29.753Z,77.80
2018-12-18T12:38:58.460Z,77.90
2018-12-18T12:41:27.748Z,78.80
2018-12-18T12:43:56.938Z,77.10
2018-12-18T12:46:26.030Z,77.80
2018-12-18T12:48:56.428Z,79.70
2018-12-18T12:51:25.510Z,80.40
2018-12-18T12:53:55.074Z,80.90
2018-12-18T12:56:24.458Z,80.00
2018-12-18T12:58:53.579Z,79.30
2018-12-18T13:01:22.618Z,80.70
2018-12-18T13:03:51.691Z,79.20
2018-12-18T13:06:20.727Z,79.60
2018-12-18T13:08:49.778Z,80.80
2018-12-18T13:11:18.814Z,79.40
2018-12-18T13:13:47.849Z,80.40
2018-12-18T13:16:16.895Z,79.60
2018-12-18T13:18:52.475Z,80.60
2018-12-18T13:21:21.550Z,79.10
2018-12-18T13:23:50.629Z,80.00
2018-12-18T13:26:19.694Z,80.00
2018-12-18T13:28:48.754Z,79.80
2018-12-18T13:31:17.855Z,79.70
2018-12-18T13:33:46.926Z,80.00
2018-12-18T13:36:16.223Z,79.80
2018-12-18T13:38:45.220Z,79.30
2018-12-18T13:41:14.274Z,79.90
2018-12-18T13:43:43.326Z,79.40
2018-12-18T13:46:15.206Z,80.10
2018-12-18T13:48:43.437Z,80.80
2018-12-18T13:51:12.454Z,81.50
2018-12-18T13:53:41.506Z,80.70
2018-12-18T13:56:10.511Z,80.90
2018-12-18T13:58:39.513Z,81.40
2018-12-18T14:01:08.796Z,80.60
2018-12-18T14:03:37.989Z,80.60
2018-12-18T14:06:07.106Z,81.40
2018-12-18T14:08:36.138Z,81.80
2018-12-18T14:11:05.486Z,81.90
2018-12-18T14:13:34.891Z,81.50
2018-12-18T14:16:04.033Z,81.70
2018-12-18T14:18:33.269Z,82.20
2018-12-18T14:21:02.290Z,82.10
2018-12-18T14:23:31.399Z,82.30
2018-12-18T14:26:00.465Z,82.40
2018-12-18T14:28:29.465Z,82.60
2018-12-18T14:30:59.061Z,83.30
2018-12-18T14:33:28.186Z,82.90
2018-12-18T14:35:57.252Z,83.20
2018-12-18T14:38:26.262Z,85.00
2018-12-18T14:40:55.386Z,86.20
2018-12-18T14:43:24.653Z,86.30
2018-12-18T14:45:53.747Z,85.80
2018-12-18T14:48:22.786Z,86.10
2018-12-18T14:50:51.798Z,86.30
2018-12-18T14:53:20.850Z,87.50
2018-12-18T14:55:49.914Z,86.00
2018-12-18T14:58:18.922Z,87.40
2018-12-18T15:00:47.980Z,86.90
2018-12-18T15:03:17.006Z,87.50
2018-12-18T15:05:46.222Z,87.90
2018-12-18T15:08:15.342Z,88.10
2018-12-18T15:10:44.403Z,88.40
2018-12-18T15:13:13.424Z,87.30
2018-12-18T15:15:42.450Z,87.30
2018-12-18T15:18:11.474Z,87.30
2018-12-18T15:20:40.565Z,87.60
2018-12-18T15:23:09.638Z,89.60
2018-12-18T15:25:38.698Z,88.40
2018-12-18T15:28:08.028Z,88.00
2018-12-18T15:30:37.101Z,87.00
2018-12-18T15:33:06.340Z,87.50
2018-12-18T15:35:35.762Z,88.40
2018-12-18T15:38:04.830Z,88.70
2018-12-18T15:40:34.276Z,88.20
2018-12-18T15:43:03.347Z,87.80
2018-12-18T15:45:32.555Z,88.20
2018-12-18T15:48:01.972Z,88.40
2018-12-18T15:50:31.922Z,88.30
2018-12-18T15:53:01.059Z,88.80
2018-12-18T15:55:30.160Z,89.00
2018-12-18T15:57:59.393Z,89.50
2018-12-18T16:00:28.506Z,90.10
2018-12-18T16:02:57.761Z,89.70
2018-12-18T16:05:26.846Z,89.40
2018-12-18T16:07:56.142Z,89.20
2018-12-18T16:10:25.549Z,89.10
2018-12-18T16:12:54.608Z,88.10
2018-12-18T16:15:26.718Z,87.80
2018-12-18T16:17:55.806Z,88.10
2018-12-18T16:20:24.831Z,88.00
2018-12-18T16:22:53.925Z,87.80
2018-12-18T16:25:22.951Z,88.70
2018-12-18T16:27:52.152Z,89.30
2018-12-18T16:30:21.191Z,88.90
2018-12-18T16:32:50.252Z,88.90
2018-12-18T16:35:19.397Z,88.60
2018-12-18T16:37:48.423Z,89.20
2018-12-18T16:40:18.465Z,88.70
2018-12-18T16:42:47.484Z,89.20
2018-12-18T16:45:16.644Z,89.20
2018-12-18T16:47:45.700Z,88.60
2018-12-18T16:50:14.782Z,88.10
2018-12-18T16:52:43.871Z,87.90
2018-12-18T16:55:12.947Z,87.30
2018-12-18T16:57:41.962Z,87.00
2018-12-18T17:00:11.710Z,87.80
2018-12-18T17:02:41.638Z,88.50
2018-12-18T17:05:10.673Z,89.00
2018-12-18T17:07:39.883Z,88.40
2018-12-18T17:10:09.409Z,88.40
2018-12-18T17:12:40.569Z,89.60
2018-12-18T17:15:09.855Z,88.80
2018-12-18T17:17:38.874Z,88.90
2018-12-18T17:20:08.489Z,88.60
2018-12-18T17:22:37.704Z,88.70
2018-12-18T17:25:07.046Z,88.30
2018-12-18T17:27:36.066Z,88.50
2018-12-18T17:30:06.817Z,88.70
2018-12-18T17:32:36.168Z,88.50
2018-12-18T17:35:05.645Z,89.00
2018-12-18T17:37:36.304Z,89.70
2018-12-18T17:40:07.754Z,89.60
2018-12-18T17:42:36.890Z,89.30
2018-12-18T17:45:07.376Z,89.40
2018-12-18T17:47:36.493Z,88.70
2018-12-18T17:50:07.277Z,88.70
2018-12-18T17:52:36.402Z,88.10
2018-12-18T17:55:05.745Z,88.00
2018-12-18T17:57:35.148Z,88.00
2018-12-18T18:00:04.708Z,88.20
2018-12-18T18:02:34.237Z,88.60
2018-12-18T18:05:03.862Z,88.90
2018-12-18T18:07:32.942Z,88.70
2018-12-18T18:10:02.006Z,89.30
2018-12-18T18:12:31.450Z,89.30
2018-12-18T18:15:00.736Z,89.30
2018-12-18T18:17:29.838Z,89.60
2018-12-18T18:19:59.420Z,90.10
2018-12-18T18:22:28.706Z,90.10
2018-12-18T18:24:57.970Z,90.10
2018-12-18T18:27:27.264Z,90.00
2018-12-18T18:29:56.520Z,90.20
2018-12-18T18:32:25.621Z,90.30
2018-12-18T18:34:54.646Z,90.40
2018-12-18T18:37:23.727Z,90.30
2018-12-18T18:39:52.974Z,89.80
2018-12-18T18:42:21.980Z,90.10
2018-12-18T18:44:51.113Z,90.00
2018-12-18T18:47:20.155Z,90.00
2018-12-18T18:49:49.434Z,90.10
2018-12-18T18:52:18.485Z,90.00
2018-12-18T18:54:47.722Z,90.00
2018-12-18T18:57:16.971Z,90.00
2018-12-18T18:59:46.015Z,89.80
2018-12-18T19:02:15.270Z,90.10
2018-12-18T19:04:46.323Z,90.30
2018-12-18T19:07:15.340Z,90.20
2018-12-18T19:09:44.507Z,90.10
2018-12-18T19:12:13.685Z,90.20
2018-12-18T19:14:43.073Z,90.20
2018-12-18T19:17:12.108Z,90.40
2018-12-18T19:19:41.186Z,90.30
2018-12-18T19:22:10.281Z,90.00
2018-12-18T19:24:39.713Z,90.00
2018-12-18T19:27:08.857Z,90.30
2018-12-18T19:29:39.233Z,90.40
2018-12-18T19:32:08.301Z,90.40
2018-12-18T19:34:37.343Z,90.50
2018-12-18T19:37:06.467Z,91.20
2018-12-18T19:39:35.725Z,90.90
2018-12-18T19:42:05.254Z,90.80
2018-12-18T19:44:34.435Z,90.60
2018-12-18T19:47:03.646Z,90.80
2018-12-18T19:49:32.931Z,90.70
2018-12-18T19:52:02.010Z,90.60
2018-12-18T19:54:31.084Z,90.70
2018-12-18T19:57:00.135Z,90.50
2018-12-18T19:59:29.427Z,90.70
2018-12-18T20:01:59.513Z,90.70
2018-12-18T20:04:28.833Z,91.20
2018-12-18T20:06:58.027Z,91.00
2018-12-18T20:09:27.691Z,91.30
2018-12-18T20:11:56.984Z,91.40
2018-12-18T20:14:26.349Z,91.40
2018-12-18T20:16:55.593Z,91.60
2018-12-18T20:19:24.646Z,92.00
2018-12-18T20:21:54.164Z,92.10
2018-12-18T20:24:23.414Z,92.10
2018-12-18T20:26:52.472Z,91.90
2018-12-18T20:29:21.554Z,91.90
2018-12-18T20:31:50.746Z,91.90
2018-12-18T20:34:19.982Z,91.90
2018-12-18T20:36:49.122Z,91.80
2018-12-18T20:39:18.221Z,91.70
2018-12-18T20:41:47.321Z,91.60
2018-12-18T20:44:16.521Z,92.10
2018-12-18T20:46:45.925Z,91.80
2018-12-18T20:49:15.216Z,91.70
2018-12-18T20:51:44.573Z,91.80
2018-12-18T20:54:13.727Z,91.70
2018-12-18T20:56:43.076Z,91.60
2018-12-18T20:59:12.498Z,91.90
2018-12-18T21:01:41.546Z,91.80
2018-12-18T21:04:10.918Z,91.80
2018-12-18T21:06:39.993Z,91.70
2018-12-18T21:09:09.922Z,91.70
2018-12-18T21:11:40.763Z,91.90
2018-12-18T21:14:09.920Z,91.90
2018-12-18T21:16:39.360Z,92.30
2018-12-18T21:19:08.439Z,92.30
2018-12-18T21:21:37.826Z,92.40
2018-12-18T21:24:07.106Z,92.70
2018-12-18T21:26:36.226Z,92.40
2018-12-18T21:29:05.371Z,92.40
2018-12-18T21:31:35.780Z,92.00
2018-12-18T21:34:04.988Z,92.10
2018-12-18T21:36:34.022Z,92.20
2018-12-18T21:39:03.194Z,92.30
2018-12-18T21:41:34.259Z,92.30
2018-12-18T21:44:03.972Z,92.30
2018-12-18T21:46:33.063Z,92.40
2018-12-18T21:49:02.153Z,93.00
2018-12-18T21:51:31.406Z,93.20
2018-12-18T21:54:00.714Z,93.00
2018-12-18T21:56:29.778Z,93.00
2018-12-18T21:58:58.790Z,93.00
2018-12-18T22:01:27.820Z,92.90
2018-12-18T22:03:57.019Z,92.80
2018-12-18T22:06:26.089Z,93.20
2018-12-18T22:08:55.177Z,92.80
2018-12-18T22:11:24.239Z,92.70
2018-12-18T22:13:53.313Z,92.50
2018-12-18T22:16:22.495Z,92.90
2018-12-18T22:18:51.595Z,92.90
2018-12-18T22:21:20.645Z,92.50
2018-12-18T22:23:49.746Z,93.10
2018-12-18T22:26:19.117Z,92.90
2018-12-18T22:28:48.495Z,92.70
2018-12-18T22:31:17.534Z,92.30
2018-12-18T22:33:46.573Z,92.00
2018-12-18T22:36:15.655Z,92.10
2018-12-18T22:38:44.784Z,92.10
2018-12-18T22:41:13.985Z,92.00
2018-12-18T22:43:43.372Z,92.10
2018-12-18T22:46:12.392Z,92.30
2018-12-18T22:48:41.864Z,92.70
2018-12-18T22:51:10.924Z,92.90
2018-12-18T22:53:39.978Z,93.40
2018-12-18T22:56:09.062Z,93.40
2018-12-18T22:58:38.204Z,93.40
2018-12-18T23:01:12.702Z,93.30
2018-12-18T23:03:42.456Z,93.50
2018-12-18T23:06:11.864Z,93.10
2018-12-18T23:08:41.312Z,92.70
2018-12-18T23:11:10.462Z,92.70
2018-12-18T23:13:39.598Z,92.60
2018-12-18T23:16:08.863Z,92.70
2018-12-18T23:18:37.905Z,92.80
2018-12-18T23:21:07.008Z,92.20
2018-12-18T23:23:36.115Z,92.00
2018-12-18T23:26:05.643Z,92.00
2018-12-18T23:28:34.783Z,91.90
2018-12-18T23:31:04.046Z,91.70
2018-12-18T23:33:33.097Z,91.70
2018-12-18T23:36:02.657Z,91.50
2018-12-18T23:38:31.681Z,91.80
2018-12-18T23:41:01.008Z,92.10
2018-12-18T23:43:32.063Z,92.60
2018-12-18T23:46:01.239Z,92.40
2018-12-18T23:48:39.784Z,92.70
2018-12-18T23:51:09.377Z,92.40
2018-12-18T23:53:38.393Z,92.60
2018-12-18T23:56:07.433Z,91.90
2018-12-18T23:58:36.455Z,91.90
